Time;durP1;ratioP1;P1;durP2;ratioP2;P2;SDS_P1;SDS_P2;PMS_P1;PMS_P2;Temp;Humidity;BMP_temperature;BMP_pressure;BME280_temperature;BME280_humidity;BME280_pressure;Samples;Min_cycle;Max_cycle;Signal;HPM_P1;HPM_P2
2023/06/15 04:55:51;;;;;;;;;35.75;32.75;;;;;19.89;56.02;101320.97;5891313;23;45226;-71
2023/06/15 04:58:20;;;;;;;;;44.50;35.75;;;;;19.85;54.96;101313.81;4972564;28;46414;-68
2023/06/15 05:00:45;;;;;;;;;47.50;37.00;;;;;19.75;54.91;101294.22;4975373;28;45522;-71
2023/06/15 05:03:11;;;;;;;;;40.75;34.00;;;;;19.92;55.04;101320.94;4963861;28;45841;-69
2023/06/15 05:05:36;;;;;;;;;42.00;35.33;;;;;19.97;55.34;101329.88;4974917;28;45587;-72
2023/06/15 05:08:02;;;;;;;;;37.00;32.67;;;;;19.99;55.17;101330.72;4972672;28;45326;-72
2023/06/15 05:10:28;;;;;;;;;42.50;35.00;;;;;19.94;55.28;101315.56;4977886;28;45613;-71
2023/06/15 05:12:54;;;;;;;;;40.50;35.50;;;;;20.03;54.94;101326.25;4973395;28;45415;-69
2023/06/15 05:15:19;;;;;;;;;36.75;33.75;;;;;20.09;55.61;101336.94;4978535;28;45560;-70
2023/06/15 05:17:44;;;;;;;;;42.75;35.25;;;;;20.11;54.78;101336.03;4974451;28;45426;-71
2023/06/15 05:20:10;;;;;;;;;40.25;35.25;;;;;19.89;55.56;101292.34;4977095;28;45296;-71
2023/06/15 05:22:35;;;;;;;;;37.25;33.00;;;;;20.06;55.01;101324.44;4972243;28;45736;-69
2023/06/15 05:25:02;;;;;;;;;43.00;36.50;;;;;20.17;54.94;101340.47;4977419;28;45447;-71
2023/06/15 05:27:28;;;;;;;;;43.00;36.00;;;;;20.20;55.11;101335.09;4975531;28;46675;-71
2023/06/15 05:29:54;;;;;;;;;43.00;35.75;;;;;20.17;54.07;101321.69;4980366;28;45285;-69
2023/06/15 05:32:19;;;;;;;;;44.75;37.75;;;;;20.19;54.83;101322.53;4978784;28;45361;-70
2023/06/15 05:34:44;;;;;;;;;45.00;37.75;;;;;20.32;54.92;101347.53;4980795;28;45553;-70
2023/06/15 05:37:10;;;;;;;;;42.50;36.75;;;;;20.23;54.58;101328.81;4978605;28;45292;-70
2023/06/15 05:39:35;;;;;;;;;39.00;33.50;;;;;20.40;54.61;101347.47;4981507;28;45316;-69
2023/06/15 05:42:01;;;;;;;;;38.00;33.00;;;;;20.33;55.24;101334.09;4975029;28;45340;-70
2023/06/15 05:44:26;;;;;;;;;45.00;36.00;;;;;20.43;54.65;101348.34;4982131;28;45486;-69
2023/06/15 05:46:52;;;;;;;;;43.75;35.50;;;;;20.50;55.09;101351.84;4975983;28;45416;-69
2023/06/15 05:49:18;;;;;;;;;39.33;34.33;;;;;20.53;54.83;101351.88;4992813;28;45236;-70
2023/06/15 05:51:43;;;;;;;;;37.50;32.00;;;;;20.57;54.96;101359.00;4977383;28;45415;-69
2023/06/15 05:54:09;;;;;;;;;44.33;34.33;;;;;20.49;55.42;101350.97;4978319;28;45431;-69
2023/06/15 05:56:34;;;;;;;;;35.33;33.00;;;;;20.47;54.78;101344.75;4979316;28;46218;-69
2023/06/15 05:58:59;;;;;;;;;40.50;35.75;;;;;20.53;54.67;101335.78;4980818;28;45351;-69
2023/06/15 06:01:25;;;;;;;;;45.00;37.50;;;;;20.65;54.95;101350.91;4979824;28;45430;-69
2023/06/15 06:03:50;;;;;;;;;40.00;34.00;;;;;20.72;54.39;101353.50;4975922;28;45177;-69
2023/06/15 06:06:15;;;;;;;;;40.67;35.00;;;;;20.72;54.14;101348.13;4980079;28;47238;-69
2023/06/15 06:08:41;;;;;;;;;39.67;32.67;;;;;20.77;53.02;101342.72;4980668;28;45294;-69
2023/06/15 06:11:07;;;;;;;;;27.67;26.00;;;;;20.93;50.67;101355.09;4975734;28;45560;-69
2023/06/15 06:13:33;;;;;;;;;23.67;23.67;;;;;20.98;50.23;101361.34;4979529;28;45452;-69
2023/06/15 06:15:59;;;;;;;;;23.67;22.33;;;;;21.08;47.17;101358.53;4978315;28;46220;-70
2023/06/15 06:18:24;;;;;;;;;23.67;20.33;;;;;21.06;46.93;101334.38;4977752;28;45261;-71
2023/06/15 06:20:49;;;;;;;;;26.00;21.67;;;;;21.18;46.58;101345.00;4978607;28;45352;-70
2023/06/15 06:23:15;;;;;;;;;21.33;19.33;;;;;21.32;46.63;101354.72;4974400;28;47122;-70
2023/06/15 06:25:40;;;;;;;;;22.67;20.67;;;;;21.42;46.17;101353.72;4979692;28;46773;-70
2023/06/15 06:28:06;;;;;;;;;15.33;15.33;;;;;21.60;47.07;101360.69;4977371;28;45375;-72
2023/06/15 06:30:32;;;;;;;;;17.00;16.00;;;;;21.77;45.90;101364.06;4979856;28;45984;-70
2023/06/15 06:32:57;;;;;;;;;18.00;14.67;;;;;21.96;45.52;101362.03;4978266;28;45554;-70
2023/06/15 06:35:22;;;;;;;;;15.67;13.67;;;;;22.13;44.33;101359.97;4980862;28;45595;-70
2023/06/15 06:37:48;;;;;;;;;16.33;14.67;;;;;22.29;43.06;101346.28;4978462;28;45348;-70
2023/06/15 06:40:13;;;;;;;;;13.00;9.00;;;;;22.59;42.95;101363.78;4980523;28;45347;-71
2023/06/15 06:42:38;;;;;;;;;13.00;11.00;;;;;22.77;43.77;101355.41;4973050;28;45375;-71
2023/06/15 06:45:04;;;;;;;;;18.33;13.00;;;;;22.99;43.21;101355.94;4994199;28;52094;-71
2023/06/15 06:47:30;;;;;;;;;11.67;11.67;;;;;23.30;41.84;101365.25;4972892;28;45522;-71
2023/06/15 06:49:56;;;;;;;;;18.33;16.00;;;;;23.58;40.57;101365.59;4979641;28;45339;-71
2023/06/15 06:52:21;;;;;;;;;12.33;11.33;;;;;23.84;39.98;101367.78;4977941;28;45411;-71
2023/06/15 06:54:47;;;;;;;;;19.33;14.00;;;;;24.11;40.81;101380.69;4979815;28;49256;-71
2023/06/15 06:57:12;;;;;;;;;15.67;15.33;;;;;24.37;41.40;101379.19;4978033;28;45157;-71
2023/06/15 06:59:37;;;;;;;;;16.33;15.00;;;;;24.55;39.22;101381.47;4981194;28;47589;-71
2023/06/15 07:02:03;;;;;;;;;14.00;12.67;;;;;24.78;38.82;101380.00;4973426;28;45843;-71
2023/06/15 07:04:28;;;;;;;;;15.00;14.33;;;;;24.92;38.89;101377.84;4985000;28;45280;-71
2023/06/15 07:06:53;;;;;;;;;16.00;13.33;;;;;25.16;39.38;101380.88;4973891;28;45523;-71
2023/06/15 07:09:19;;;;;;;;;14.00;13.00;;;;;25.32;37.37;101378.63;4978334;28;45181;-71
2023/06/15 07:11:44;;;;;;;;;15.33;13.67;;;;;25.50;39.18;101374.53;4976938;28;45533;-71
2023/06/15 07:14:09;;;;;;;;;16.00;14.67;;;;;25.77;37.61;101383.69;4980213;28;45477;-71
2023/06/15 07:16:35;;;;;;;;;15.00;14.00;;;;;25.97;37.87;101389.41;4978979;28;53455;-71
2023/06/15 07:19:00;;;;;;;;;10.67;8.00;;;;;26.18;36.94;101390.56;4978004;28;45429;-70
2023/06/15 07:21:25;;;;;;;;;16.00;14.67;;;;;26.42;36.95;101394.31;4976970;28;45475;-70
2023/06/15 07:23:51;;;;;;;;;21.00;15.33;;;;;26.69;37.55;101388.94;4978607;28;45395;-71
2023/06/15 07:26:16;;;;;;;;;14.00;14.00;;;;;26.94;37.39;101391.72;4977269;28;45352;-70
2023/06/15 07:28:41;;;;;;;;;16.00;16.00;;;;;27.15;36.15;101390.09;4979115;28;45282;-71
2023/06/15 07:31:07;;;;;;;;;14.00;14.00;;;;;27.32;34.54;101382.28;4978974;28;46271;-71
2023/06/15 07:33:32;;;;;;;;;14.75;12.50;;;;;27.64;35.06;101391.06;4977158;28;45430;-71
2023/06/15 07:35:57;;;;;;;;;12.25;11.25;;;;;27.90;36.17;101395.56;4978799;28;45305;-70
2023/06/15 07:38:23;;;;;;;;;15.00;12.50;;;;;28.05;33.38;101385.91;4978445;28;45426;-71
2023/06/15 07:40:48;;;;;;;;;10.75;10.75;;;;;28.29;35.79;101398.53;4978536;28;45317;-71
2023/06/15 07:43:14;;;;;;;;;11.50;9.75;;;;;28.43;34.62;101399.81;4963459;28;45830;-71
2023/06/15 07:45:41;;;;;;;;;13.75;12.50;;;;;28.63;35.01;101405.34;4974915;28;45384;-71
2023/06/15 07:48:07;;;;;;;;;11.50;11.50;;;;;28.87;33.25;101400.69;4965356;28;45249;-71
2023/06/15 07:50:32;;;;;;;;;10.50;9.00;;;;;29.03;32.24;101386.44;4974616;28;45229;-71
2023/06/15 07:52:58;;;;;;;;;12.25;11.00;;;;;29.29;33.54;101404.38;4969511;28;45474;-71
2023/06/15 07:55:23;;;;;;;;;9.25;8.25;;;;;29.50;31.42;101397.13;4975192;28;45357;-71
2023/06/15 07:57:48;;;;;;;;;8.25;6.25;;;;;29.74;29.44;101396.00;4974976;28;45219;-71
2023/06/15 08:00:14;;;;;;;;;9.50;9.25;;;;;30.02;29.68;101402.88;4976096;28;45215;-71
2023/06/15 08:02:40;;;;;;;;;9.00;9.00;;;;;30.28;29.46;101398.97;4976340;28;46790;-71
2023/06/15 08:05:06;;;;;;;;;12.50;9.25;;;;;30.38;30.33;101369.38;4982744;28;45272;-70
2023/06/15 08:07:31;;;;;;;;;12.75;10.75;;;;;30.63;30.74;101378.09;4977817;28;45454;-71
2023/06/15 08:09:56;;;;;;;;;12.75;10.00;;;;;30.91;30.53;101393.09;4976031;28;45306;-71
2023/06/15 08:12:22;;;;;;;;;13.00;9.00;;;;;30.97;28.49;101398.25;4973867;28;45563;-71
2023/06/15 08:14:47;;;;;;;;;9.75;9.25;;;;;30.93;30.18;101388.47;4978380;28;45495;-70
2023/06/15 08:17:12;;;;;;;;;13.50;11.25;;;;;31.09;30.15;101408.56;4974823;28;45463;-71
2023/06/15 08:19:38;;;;;;;;;12.50;9.50;;;;;31.05;29.50;101392.41;4978833;28;46145;-71
2023/06/15 08:22:03;;;;;;;;;10.00;10.00;;;;;31.11;28.22;101389.34;4975936;28;46027;-71
2023/06/15 08:24:29;;;;;;;;;15.50;10.50;;;;;31.24;28.32;101389.59;4977823;28;45313;-71
2023/06/15 08:26:54;;;;;;;;;9.25;9.25;;;;;31.42;27.90;101410.50;4974706;28;45511;-71
2023/06/15 08:29:20;;;;;;;;;10.50;10.00;;;;;31.48;27.22;101410.19;4976017;28;45315;-71
2023/06/15 08:31:46;;;;;;;;;15.00;11.60;;;;;31.44;26.79;101386.69;4974555;28;46259;-71
2023/06/15 08:34:11;;;;;;;;;8.25;8.25;;;;;31.66;27.35;101400.97;4974936;28;45471;-70
2023/06/15 08:36:37;;;;;;;;;8.00;7.25;;;;;31.84;26.97;101412.75;4975986;28;45460;-71
2023/06/15 08:39:03;;;;;;;;;8.25;7.25;;;;;31.98;27.46;101398.34;4974960;28;45497;-71
2023/06/15 08:41:30;;;;;;;;;8.20;7.60;;;;;32.09;27.74;101395.88;4972561;28;46027;-71
2023/06/15 08:43:55;;;;;;;;;11.20;9.80;;;;;32.13;27.26;101384.78;4978710;28;45716;-71
2023/06/15 08:46:24;;;;;;;;;10.50;9.00;;;;;32.26;26.78;101408.59;4974037;28;45384;-71
2023/06/15 08:48:51;;;;;;;;;7.80;7.80;;;;;32.37;25.34;101413.47;4964677;28;45424;-71
2023/06/15 08:51:17;;;;;;;;;8.60;8.60;;;;;32.36;25.22;101387.06;4972671;28;45253;-71
2023/06/15 08:53:43;;;;;;;;;11.50;9.00;;;;;32.70;25.42;101412.50;4970917;28;45158;-71
2023/06/15 08:56:12;;;;;;;;;8.20;7.20;;;;;32.87;24.85;101393.22;4974776;28;45399;-73
2023/06/15 08:58:38;;;;;;;;;8.20;8.20;;;;;33.13;26.37;101405.38;4970723;28;45395;-71
2023/06/15 09:01:05;;;;;;;;;9.80;8.60;;;;;33.03;26.08;101392.34;4976075;28;45423;-71
2023/06/15 09:03:33;;;;;;;;;9.20;8.00;;;;;33.24;25.45;101387.41;4974071;28;45257;-72
2023/06/15 09:05:59;;;;;;;;;10.00;9.40;;;;;33.51;25.13;101396.66;4986732;28;45414;-71
2023/06/15 09:08:24;;;;;;;;;10.50;8.75;;;;;33.75;26.18;101397.00;4975292;28;45412;-72
2023/06/15 09:10:49;;;;;;;;;6.50;6.50;;;;;33.87;24.77;101385.22;4981049;28;45383;-71
2023/06/15 09:13:16;;;;;;;;;9.75;7.75;;;;;34.08;23.67;101399.44;4975692;28;45375;-72
2023/06/15 09:15:43;;;;;;;;;8.00;8.00;;;;;34.32;23.84;101398.84;4981608;28;45464;-72
2023/06/15 09:18:10;;;;;;;;;9.40;8.20;;;;;34.62;23.22;101392.28;4977672;28;45579;-71
2023/06/15 09:20:39;;;;;;;;;4.80;4.80;;;;;34.72;25.30;101399.81;4981107;28;45289;-71
2023/06/15 09:23:09;;;;;;;;;11.80;10.60;;;;;34.80;23.70;101401.16;4979125;28;45833;-72
2023/06/15 09:25:36;;;;;;;;;7.40;7.40;;;;;35.00;22.65;101392.41;4981030;28;45272;-71
2023/06/15 09:28:04;;;;;;;;;8.00;7.40;;;;;35.23;24.17;101398.22;4973125;28;45472;-72
2023/06/15 09:30:34;;;;;;;;;10.60;10.60;;;;;35.38;24.07;101376.03;4980266;28;46286;-72
2023/06/15 09:33:10;;;;;;;;;8.80;8.20;;;;;35.73;24.03;101396.53;4970928;28;45542;-72
2023/06/15 09:35:35;;;;;;;;;8.60;7.40;;;;;35.96;23.91;101392.09;4979433;28;45282;-72
2023/06/15 09:38:01;;;;;;;;;8.25;8.25;;;;;36.20;21.76;101398.56;4974987;28;45581;-72
2023/06/15 09:40:28;;;;;;;;;10.20;9.20;;;;;36.40;22.56;101399.81;4981143;28;45728;-72
2023/06/15 09:42:57;;;;;;;;;10.60;8.80;;;;;36.43;21.03;101395.97;4967715;28;45415;-71
2023/06/15 09:45:22;;;;;;;;;8.40;8.40;;;;;36.54;22.74;101401.56;4975952;28;45362;-72
2023/06/15 09:47:55;;;;;;;;;12.00;7.75;;;;;36.50;22.45;101403.66;4968952;28;45424;-72
2023/06/15 09:50:27;;;;;;;;;9.60;9.60;;;;;36.55;22.92;101395.06;4976430;28;46173;-72
2023/06/15 09:52:53;;;;;;;;;10.20;9.80;;;;;36.62;20.73;101389.97;4974840;28;45326;-72
2023/06/15 09:55:18;;;;;;;;;10.40;9.20;;;;;36.75;21.58;101390.81;4981720;28;45284;-72
2023/06/15 09:57:44;;;;;;;;;29.00;27.00;;;;;36.94;21.80;101388.38;4974614;28;45483;-72
2023/06/15 10:00:12;;;;;;;;;9.00;7.00;;;;;36.96;20.69;101375.34;4977146;28;45644;-73
2023/06/15 10:02:39;;;;;;;;;8.80;8.80;;;;;37.05;20.83;101394.94;4971860;28;45494;-72
2023/06/15 10:05:14;;;;;;;;;13.20;9.00;;;;;36.95;20.79;101394.78;4983613;28;45537;-72
2023/06/15 10:07:48;;;;;;;;;11.60;10.00;;;;;36.76;21.94;101392.56;4972730;28;45785;-72
2023/06/15 10:10:16;;;;;;;;;9.00;9.00;;;;;36.75;20.53;101393.56;4994087;28;47086;-72
2023/06/15 10:12:45;;;;;;;;;9.40;9.40;;;;;36.66;21.97;101397.00;4971934;28;45317;-72
2023/06/15 10:15:15;;;;;;;;;10.40;9.80;;;;;36.64;20.93;101396.25;4980007;28;45361;-73
2023/06/15 10:17:46;;;;;;;;;9.80;9.20;;;;;36.61;21.01;101400.13;4974323;28;45502;-73
2023/06/15 10:20:16;;;;;;;;;8.20;8.00;;;;;36.57;21.74;101395.81;4978641;28;46215;-72
2023/06/15 10:22:48;;;;;;;;;11.20;9.00;;;;;36.67;21.49;101402.41;4968002;28;45389;-71
2023/06/15 10:25:15;;;;;;;;;10.60;9.60;;;;;36.70;20.77;101391.16;4980169;28;45343;-72
2023/06/15 10:27:41;;;;;;;;;8.60;8.60;;;;;36.73;19.58;101392.78;4969523;28;45492;-72
2023/06/15 10:30:12;;;;;;;;;8.20;8.20;;;;;36.93;21.31;101396.75;4980975;28;46290;-72
2023/06/15 10:32:45;;;;;;;;;9.20;8.60;;;;;36.89;19.75;101390.63;4971501;28;45457;-72
2023/06/15 10:35:27;;;;;;;;;11.20;10.00;;;;;37.09;19.87;101402.00;4981971;28;45228;-71
2023/06/15 10:38:01;;;;;;;;;9.40;9.40;;;;;37.32;19.16;101402.94;4977626;28;47119;-74
2023/06/15 10:40:31;;;;;;;;;9.80;7.60;;;;;37.54;20.49;101394.75;4979279;28;46287;-71
2023/06/15 10:43:02;;;;;;;;;10.60;7.80;;;;;37.71;20.14;101392.50;4964829;28;45503;-72
2023/06/15 10:45:32;;;;;;;;;9.00;9.00;;;;;37.93;18.60;101395.28;4975214;28;45297;-72
2023/06/15 10:48:03;;;;;;;;;11.00;11.00;;;;;38.20;19.77;101392.13;4967580;28;45318;-71
2023/06/15 10:50:40;;;;;;;;;11.40;11.40;;;;;38.20;20.05;101374.69;4974558;28;46669;-71
2023/06/15 10:53:19;;;;;;;;;13.60;12.40;;;;;38.07;17.73;101391.41;4970932;28;45545;-71
2023/06/15 10:55:46;;;;;;;;;11.00;11.00;;;;;38.20;19.51;101394.88;4977618;28;45407;-71
2023/06/15 10:58:15;;;;;;;;;10.00;9.00;;;;;38.20;18.74;101389.34;4973439;28;45780;-71
2023/06/15 11:00:45;;;;;;;;;12.20;11.20;;;;;38.28;19.48;101384.06;4977713;28;46046;-71
2023/06/15 11:03:26;;;;;;;;;9.20;9.20;;;;;38.46;19.65;101389.13;4970769;28;45297;-70
2023/06/15 11:06:21;;;;;;;;;13.80;11.20;;;;;38.47;19.31;101388.09;4985376;28;45313;-71
2023/06/15 11:09:00;;;;;;;;;11.20;11.20;;;;;38.53;19.54;101384.81;4962209;28;46535;-72
2023/06/15 11:11:42;;;;;;;;;10.60;10.60;;;;;38.55;19.34;101388.31;4974580;28;47180;-70
2023/06/15 11:14:21;;;;;;;;;11.40;11.00;;;;;38.57;19.18;101383.56;4976863;28;45458;-71
2023/06/15 11:17:01;;;;;;;;;12.40;11.20;;;;;38.55;18.97;101392.97;4973785;28;45375;-70
2023/06/15 11:19:26;;;;;;;;;10.80;10.80;;;;;38.57;18.40;101389.06;4975647;28;45399;-71
2023/06/15 11:22:05;;;;;;;;;10.50;10.50;;;;;38.66;19.52;101392.94;4976579;28;46308;-71
2023/06/15 11:24:38;;;;;;;;;13.40;11.20;;;;;38.64;18.55;101382.00;4976322;28;45471;-71
2023/06/15 11:27:05;;;;;;;;;11.20;11.20;;;;;38.73;18.21;101378.44;4971767;28;45442;-71
2023/06/15 11:29:34;;;;;;;;;12.00;11.00;;;;;38.99;17.73;101389.19;4977365;28;45435;-70
2023/06/15 11:32:02;;;;;;;;;11.40;11.40;;;;;39.16;17.62;101387.72;4967849;28;45313;-71
2023/06/15 11:34:27;;;;;;;;;13.00;12.60;;;;;39.17;17.81;101376.50;4977894;28;45346;-71
2023/06/15 11:36:56;;;;;;;;;12.50;11.50;;;;;39.17;18.76;101376.50;4974243;28;45221;-71
2023/06/15 11:39:22;;;;;;;;;12.00;12.00;;;;;39.11;18.83;101374.28;4977737;28;45268;-71
2023/06/15 11:41:49;;;;;;;;;14.60;14.60;;;;;39.22;18.90;101378.88;4973654;28;46658;-70
2023/06/15 11:44:15;;;;;;;;;16.40;13.20;;;;;39.43;19.04;101378.88;4972986;28;45448;-71
2023/06/15 11:46:41;;;;;;;;;14.75;13.50;;;;;39.37;18.97;101374.78;4966593;28;45694;-71
2023/06/15 11:49:10;;;;;;;;;12.00;10.25;;;;;39.25;18.90;101369.44;4968737;28;45269;-71
2023/06/15 11:51:36;;;;;;;;;13.40;10.00;;;;;39.29;18.44;101370.91;4975765;28;47540;-71
2023/06/15 11:54:03;;;;;;;;;14.20;13.40;;;;;39.44;18.61;101355.75;4970190;28;45217;-71
2023/06/15 11:56:29;;;;;;;;;16.00;14.00;;;;;39.60;18.82;101356.16;4970430;28;45352;-71
2023/06/15 11:58:55;;;;;;;;;14.25;12.50;;;;;39.64;17.46;101359.50;4968224;28;45218;-71
2023/06/15 12:01:20;;;;;;;;;12.00;12.00;;;;;39.73;17.63;101338.41;4969536;28;46278;-71
2023/06/15 12:03:51;;;;;;;;;15.50;13.25;;;;;39.87;17.79;101343.59;4978830;28;45531;-71
2023/06/15 12:06:18;;;;;;;;;12.40;12.40;;;;;39.85;17.58;101345.63;4980729;28;45525;-71
2023/06/15 12:08:50;;;;;;;;;14.20;13.60;;;;;39.92;18.64;101348.72;4978114;28;45194;-71
2023/06/15 12:11:23;;;;;;;;;14.60;12.40;;;;;39.97;17.50;101346.38;4973786;28;45260;-71
2023/06/15 12:13:49;;;;;;;;;12.20;12.20;;;;;40.10;18.22;101351.69;4969148;28;45383;-71
2023/06/15 12:16:14;;;;;;;;;11.75;11.75;;;;;39.94;18.78;101344.81;4977084;28;45567;-72
2023/06/15 12:18:39;;;;;;;;;13.00;12.25;;;;;39.94;17.71;101344.81;4978803;28;45380;-72
2023/06/15 12:21:05;;;;;;;;;12.50;12.25;;;;;40.11;18.13;101334.94;4975421;28;45381;-72
2023/06/15 12:23:32;;;;;;;;;14.50;14.50;;;;;40.23;16.87;101346.81;4979694;28;45310;-72
2023/06/15 12:26:00;;;;;;;;;11.60;10.20;;;;;39.97;17.88;101347.28;4977225;28;45285;-72
2023/06/15 12:28:26;;;;;;;;;12.00;11.20;;;;;40.04;16.78;101345.69;4977945;28;45225;-72
2023/06/15 12:31:10;;;;;;;;;14.60;13.20;;;;;39.97;17.38;101338.06;4976854;28;45406;-73
2023/06/15 12:33:38;;;;;;;;;15.60;15.60;;;;;40.00;17.63;101337.81;4977422;28;45431;-73
2023/06/15 12:36:10;;;;;;;;;14.00;14.00;;;;;39.86;17.45;101329.88;4978002;28;45472;-73
2023/06/15 12:38:36;;;;;;;;;12.40;11.40;;;;;39.97;18.28;101338.06;4975504;28;46011;-73
2023/06/15 12:41:01;;;;;;;;;12.50;12.50;;;;;40.04;17.69;101333.75;4976947;28;46090;-73
2023/06/15 12:43:26;;;;;;;;;13.25;13.25;;;;;40.03;16.93;101332.88;4976455;28;45320;-73
2023/06/15 12:45:54;;;;;;;;;15.00;13.25;;;;;40.09;16.56;101333.31;4976827;28;45251;-73
2023/06/15 12:48:23;;;;;;;;;15.00;14.20;;;;;40.19;16.82;101343.44;4975369;28;45429;-73
2023/06/15 12:50:50;;;;;;;;;16.20;15.00;;;;;40.14;16.97;101326.34;4977897;28;46245;-72
2023/06/15 12:53:17;;;;;;;;;13.20;12.80;;;;;40.24;16.70;101340.22;4975205;28;45159;-72
2023/06/15 12:55:42;;;;;;;;;13.80;13.80;;;;;40.35;15.78;101334.56;4977375;28;45451;-73
2023/06/15 12:58:08;;;;;;;;;15.75;13.00;;;;;40.55;15.58;101334.59;4973351;28;45435;-72
2023/06/15 13:00:33;;;;;;;;;17.25;15.25;;;;;40.67;15.37;101326.03;4978137;28;45468;-72
2023/06/15 13:02:59;;;;;;;;;14.00;11.25;;;;;40.89;15.36;101326.72;4975475;28;45380;-73
2023/06/15 13:05:24;;;;;;;;;14.00;13.00;;;;;40.92;14.95;101331.97;4982053;28;45497;-72
2023/06/15 13:07:50;;;;;;;;;14.50;12.75;;;;;40.93;16.31;101325.41;4975597;28;45585;-72
2023/06/15 13:10:16;;;;;;;;;12.50;11.50;;;;;40.87;15.15;101321.34;4979303;28;46154;-72
2023/06/15 13:12:43;;;;;;;;;13.20;12.20;;;;;40.62;16.51;101313.59;4971752;28;45456;-72
2023/06/15 13:15:09;;;;;;;;;15.60;15.00;;;;;40.64;15.26;101323.53;4977954;28;45275;-73
2023/06/15 13:17:36;;;;;;;;;16.20;13.20;;;;;40.71;16.00;101315.50;4975648;28;45303;-73
2023/06/15 13:20:07;;;;;;;;;12.60;12.60;;;;;40.29;15.94;101304.66;4976561;28;46098;-72
2023/06/15 13:22:32;;;;;;;;;15.00;14.60;;;;;40.12;16.11;101324.72;4975476;28;45226;-72
2023/06/15 13:24:58;;;;;;;;;13.75;12.50;;;;;40.04;16.36;101328.19;4978356;28;45261;-73
2023/06/15 13:27:24;;;;;;;;;14.50;14.50;;;;;40.02;15.71;101325.56;4972983;28;46037;-72
2023/06/15 13:29:50;;;;;;;;;13.00;12.60;;;;;40.07;15.82;101324.28;4978857;28;45292;-72
2023/06/15 13:32:16;;;;;;;;;13.75;13.75;;;;;40.00;16.49;101324.84;4970683;28;45210;-72
2023/06/15 13:34:41;;;;;;;;;10.60;10.60;;;;;40.09;16.56;101319.47;4979239;28;45358;-73
2023/06/15 13:37:07;;;;;;;;;13.75;13.75;;;;;40.28;16.17;101330.63;4972754;28;45439;-73
2023/06/15 13:39:34;;;;;;;;;13.00;12.00;;;;;40.39;16.32;101330.50;4977055;28;46280;-73
2023/06/15 13:41:59;;;;;;;;;13.20;11.40;;;;;40.42;16.60;101319.13;4972893;28;45470;-73
2023/06/15 13:44:24;;;;;;;;;15.50;15.00;;;;;40.53;16.76;101322.75;4977301;28;45329;-73
2023/06/15 13:46:50;;;;;;;;;11.00;11.00;;;;;40.30;15.68;101313.84;4972633;28;48897;-73
2023/06/15 13:49:15;;;;;;;;;16.25;15.75;;;;;40.44;16.05;101330.03;4980718;28;46019;-73
2023/06/15 13:51:41;;;;;;;;;12.25;12.25;;;;;40.54;16.52;101330.06;4976531;28;45332;-73
2023/06/15 13:54:06;;;;;;;;;12.20;11.60;;;;;40.47;16.73;101319.56;4982379;28;45237;-73
2023/06/15 13:56:32;;;;;;;;;14.00;10.75;;;;;40.43;15.87;101315.31;4975587;28;45368;-73
2023/06/15 13:58:57;;;;;;;;;13.00;13.00;;;;;40.38;16.27;101314.88;4979955;28;45592;-73
2023/06/15 14:01:23;;;;;;;;;11.25;11.25;;;;;40.22;15.97;101315.47;4976811;28;45410;-73
2023/06/15 14:03:52;;;;;;;;;13.00;13.00;;;;;40.02;16.17;101299.75;4982081;28;45443;-73
2023/06/15 14:06:20;;;;;;;;;13.40;13.40;;;;;40.01;16.21;101298.91;4982535;28;45476;-74
2023/06/15 14:08:46;;;;;;;;;12.80;12.80;;;;;40.20;16.66;101306.41;4981624;28;46169;-74
2023/06/15 14:11:13;;;;;;;;;14.50;13.00;;;;;40.34;16.52;101302.34;4978856;28;45506;-73
2023/06/15 14:13:39;;;;;;;;;11.00;11.00;;;;;40.51;16.29;101320.16;4976790;28;45494;-73
2023/06/15 14:16:04;;;;;;;;;12.00;10.50;;;;;40.60;16.24;101316.50;4977102;28;46219;-73
2023/06/15 14:18:30;;;;;;;;;12.75;12.00;;;;;40.56;16.25;101303.97;4979003;28;45301;-73
2023/06/15 14:20:55;;;;;;;;;11.50;11.50;;;;;40.62;16.01;101314.47;4980002;28;45422;-73
2023/06/15 14:23:20;;;;;;;;;13.25;12.00;;;;;40.54;15.78;101300.44;4980528;28;45490;-73
2023/06/15 14:25:46;;;;;;;;;13.50;13.25;;;;;40.56;15.63;101311.38;4979841;28;45439;-73
2023/06/15 14:28:15;;;;;;;;;13.00;13.00;;;;;40.58;16.09;101309.34;4973415;28;45647;-73
2023/06/15 14:30:40;;;;;;;;;9.20;9.20;;;;;40.53;16.35;101295.03;4977722;28;45510;-72
2023/06/15 14:33:06;;;;;;;;;12.25;11.75;;;;;40.52;16.05;101316.34;4975888;28;45521;-73
2023/06/15 14:35:32;;;;;;;;;11.25;11.25;;;;;40.47;15.71;101313.13;4979789;28;45681;-73
2023/06/15 14:37:58;;;;;;;;;10.80;10.80;;;;;40.51;16.42;101299.88;4978997;28;45312;-73
2023/06/15 14:40:23;;;;;;;;;13.00;12.75;;;;;40.47;15.89;101322.34;4980972;28;45241;-73
2023/06/15 14:42:50;;;;;;;;;14.50;12.25;;;;;40.24;16.46;101321.72;4971878;28;45651;-72
2023/06/15 14:45:16;;;;;;;;;12.00;11.20;;;;;40.14;16.33;101315.25;4981303;28;45442;-72
2023/06/15 14:47:42;;;;;;;;;9.80;8.60;;;;;40.16;16.63;101306.78;4972662;28;45494;-74
2023/06/15 14:50:10;;;;;;;;;12.00;11.00;;;;;40.18;16.92;101304.75;4973630;28;45853;-73
2023/06/15 14:52:36;;;;;;;;;14.00;13.00;;;;;40.03;15.86;101298.78;4973559;28;45503;-73
2023/06/15 14:55:02;;;;;;;;;13.50;11.00;;;;;39.89;16.72;101300.03;4974964;28;45597;-73
2023/06/15 14:57:29;;;;;;;;;14.50;13.00;;;;;39.83;16.63;101300.63;4972825;28;45306;-73
2023/06/15 14:59:54;;;;;;;;;12.40;12.40;;;;;39.85;16.46;101314.31;4972942;28;45326;-73
2023/06/15 15:02:20;;;;;;;;;12.00;11.00;;;;;39.74;17.33;101304.16;4976902;28;45431;-73
2023/06/15 15:04:45;;;;;;;;;12.00;11.75;;;;;39.54;16.38;101306.00;4981725;28;45396;-73
2023/06/15 15:07:10;;;;;;;;;10.00;10.00;;;;;39.44;17.16;101310.59;4977051;28;45744;-72
2023/06/15 15:09:36;;;;;;;;;12.25;11.00;;;;;39.30;17.69;101296.09;4976692;28;45251;-72
2023/06/15 15:12:02;;;;;;;;;12.75;10.00;;;;;39.33;17.58;101284.78;4971513;28;45539;-73
2023/06/15 15:14:27;;;;;;;;;11.50;11.25;;;;;39.24;17.31;101290.22;4985453;28;46520;-72
2023/06/15 15:16:52;;;;;;;;;22.00;22.00;;;;;39.06;17.32;101298.28;4973065;28;46099;-71
2023/06/15 15:19:18;;;;;;;;;14.25;12.75;;;;;38.72;17.29;101288.25;4973638;28;45455;-74
2023/06/15 15:21:43;;;;;;;;;10.75;10.25;;;;;38.45;17.82;101296.16;4978410;28;45528;-73
2023/06/15 15:24:09;;;;;;;;;11.00;11.00;;;;;38.00;17.48;101288.00;4979810;28;45662;-72
2023/06/15 15:26:35;;;;;;;;;12.60;11.00;;;;;37.65;18.15;101290.91;4977216;28;46480;-75
2023/06/15 15:29:01;;;;;;;;;14.75;13.50;;;;;37.48;18.19;101284.00;4973949;28;45323;-75
2023/06/15 15:31:26;;;;;;;;;9.75;9.75;;;;;37.32;17.58;101284.34;4978934;28;45782;-73
2023/06/15 15:33:51;;;;;;;;;11.00;11.00;;;;;37.34;18.11;101291.50;4977453;28;45460;-73
2023/06/15 15:36:17;;;;;;;;;10.00;10.00;;;;;37.33;18.30;101288.84;4976296;28;45352;-72
2023/06/15 15:38:42;;;;;;;;;14.00;11.75;;;;;37.41;18.34;101295.50;4963729;28;45593;-73
2023/06/15 15:41:08;;;;;;;;;10.25;9.25;;;;;37.38;18.05;101295.75;4975833;28;45225;-73
2023/06/15 15:43:33;;;;;;;;;9.00;9.00;;;;;37.13;17.84;101282.19;4978054;28;45499;-73
2023/06/15 15:45:58;;;;;;;;;11.25;9.50;;;;;37.11;18.49;101292.47;4977862;28;53056;-72
2023/06/15 15:48:24;;;;;;;;;10.75;10.75;;;;;36.90;18.55;101279.38;4976280;28;45478;-73
2023/06/15 15:50:49;;;;;;;;;11.25;11.00;;;;;36.70;18.47;101291.97;4978667;28;45484;-73
2023/06/15 15:53:15;;;;;;;;;10.00;10.00;;;;;36.39;18.57;101287.94;4970005;28;45438;-73
2023/06/15 15:55:40;;;;;;;;;9.75;9.75;;;;;36.11;18.97;101285.53;4990534;28;47015;-72
2023/06/15 15:58:06;;;;;;;;;7.75;7.75;;;;;35.76;18.96;101284.38;4975716;28;45348;-73
2023/06/15 16:00:31;;;;;;;;;11.25;9.75;;;;;35.45;19.33;101266.47;4979633;28;45262;-73
2023/06/15 16:02:57;;;;;;;;;13.00;12.00;;;;;35.24;19.75;101290.03;4974891;28;45504;-73
2023/06/15 16:05:22;;;;;;;;;9.50;9.25;;;;;34.97;19.76;101288.22;4986514;28;45415;-73